createdAt,value
2022-08-29T00:00:33.696Z,2.95
2022-08-29T00:03:01.268Z,3.78
2022-08-29T00:05:32.974Z,3.03
2022-08-29T00:08:01.667Z,2.58
2022-08-29T00:10:31.961Z,2.53
2022-08-29T00:12:58.612Z,4.32
2022-08-29T00:15:25.790Z,3.03
2022-08-29T00:17:52.681Z,3.72
2022-08-29T00:20:29.116Z,2.67
2022-08-29T00:23:01.940Z,3.28
2022-08-29T00:25:28.529Z,3.78
2022-08-29T00:27:55.184Z,4.78
2022-08-29T00:30:22.201Z,3.35
2022-08-29T00:32:48.777Z,2.88
2022-08-29T00:35:20.234Z,2.90
2022-08-29T00:37:46.877Z,3.22
2022-08-29T00:40:18.346Z,3.08
2022-08-29T00:42:45.053Z,4.22
2022-08-29T00:45:14.233Z,2.83
2022-08-29T00:47:46.645Z,4.60
2022-08-29T00:50:28.083Z,3.17
2022-08-29T00:52:57.305Z,3.08
2022-08-29T00:55:27.594Z,2.30
2022-08-29T00:57:58.810Z,4.10
2022-08-29T01:00:26.317Z,2.90
2022-08-29T01:02:54.366Z,3.22
2022-08-29T01:05:21.670Z,2.65
2022-08-29T01:07:48.561Z,3.00
2022-08-29T01:10:36.235Z,3.15
2022-08-29T01:13:04.595Z,3.15
2022-08-29T01:15:33.736Z,3.85
2022-08-29T01:18:04.910Z,3.00
2022-08-29T01:21:20.300Z,3.35
2022-08-29T01:23:59.686Z,4.00
2022-08-29T01:26:29.099Z,2.47
2022-08-29T01:28:56.567Z,4.32
2022-08-29T01:31:37.894Z,4.90
2022-08-29T01:34:16.384Z,3.53
2022-08-29T01:36:51.869Z,3.10
2022-08-29T01:39:22.197Z,3.05
2022-08-29T01:41:50.159Z,3.45
2022-08-29T01:44:19.395Z,2.92
2022-08-29T01:46:47.895Z,2.85
2022-08-29T01:49:15.690Z,3.22
2022-08-29T01:51:42.277Z,2.63
2022-08-29T01:54:10.933Z,3.80
2022-08-29T01:56:41.420Z,2.92
2022-08-29T01:59:10.994Z,2.70
2022-08-29T02:01:44.997Z,3.88
2022-08-29T02:04:11.936Z,3.42
2022-08-29T02:06:38.623Z,3.90
2022-08-29T02:09:06.292Z,2.92
2022-08-29T02:11:33.263Z,4.30
2022-08-29T02:14:00.017Z,4.75
2022-08-29T02:16:28.621Z,4.00
2022-08-29T02:18:55.955Z,2.92
2022-08-29T02:21:25.596Z,2.60
2022-08-29T02:23:53.341Z,3.35
2022-08-29T02:26:21.912Z,3.65
2022-08-29T02:28:51.737Z,2.67
2022-08-29T02:31:23.037Z,2.97
2022-08-29T02:33:50.757Z,3.45
2022-08-29T02:36:19.675Z,3.90
2022-08-29T02:38:46.558Z,3.45
2022-08-29T02:41:14.400Z,3.38
2022-08-29T02:43:41.544Z,3.85
2022-08-29T02:46:08.397Z,4.32
2022-08-29T02:48:34.896Z,3.35
2022-08-29T02:53:31.114Z,2.95
2022-08-29T02:55:58.333Z,4.05
2022-08-29T02:58:25.693Z,4.20
2022-08-29T03:00:54.112Z,3.92
2022-08-29T03:03:20.917Z,3.25
2022-08-29T03:05:47.996Z,3.65
2022-08-29T03:08:15.110Z,3.33
2022-08-29T03:10:43.204Z,4.13
2022-08-29T03:13:10.781Z,4.03
2022-08-29T03:15:37.518Z,3.55
2022-08-29T03:18:04.609Z,4.45
2022-08-29T03:20:34.349Z,4.00
2022-08-29T03:23:00.831Z,6.55
2022-08-29T03:27:53.949Z,3.83
2022-08-29T03:30:21.765Z,3.30
2022-08-29T03:32:51.075Z,5.32
2022-08-29T03:35:19.660Z,3.78
2022-08-29T03:37:46.247Z,4.80
2022-08-29T03:40:13.941Z,3.85
2022-08-29T03:42:41.105Z,3.47
2022-08-29T03:45:10.694Z,2.70
2022-08-29T03:47:37.266Z,3.50
2022-08-29T03:50:04.633Z,2.92
2022-08-29T03:52:31.349Z,4.00
2022-08-29T03:54:58.533Z,4.30
2022-08-29T03:57:26.562Z,3.47
2022-08-29T03:59:54.769Z,3.95
2022-08-29T04:02:21.251Z,3.55
2022-08-29T04:07:55.945Z,10.05
2022-08-29T04:10:26.178Z,4.35
2022-08-29T04:12:54.870Z,3.67
2022-08-29T04:15:24.969Z,2.83
2022-08-29T04:17:54.505Z,6.70
2022-08-29T04:20:25.235Z,4.57
2022-08-29T04:22:54.216Z,5.45
2022-08-29T04:25:21.938Z,3.70
2022-08-29T04:27:49.702Z,3.53
2022-08-29T04:30:18.726Z,4.80
2022-08-29T04:32:45.298Z,4.70
2022-08-29T04:35:13.614Z,4.60
2022-08-29T04:37:40.858Z,3.65
2022-08-29T04:40:09.823Z,3.53
2022-08-29T04:42:40.046Z,3.80
2022-08-29T04:45:09.197Z,6.60
2022-08-29T04:47:36.226Z,3.13
2022-08-29T04:50:03.598Z,5.05
2022-08-29T04:52:30.463Z,2.83
2022-08-29T04:54:57.407Z,4.65
2022-08-29T04:57:24.863Z,3.38
2022-08-29T04:59:55.680Z,2.58
2022-08-29T05:02:23.802Z,3.05
2022-08-29T05:04:53.013Z,3.83
2022-08-29T05:07:21.692Z,3.55
2022-08-29T05:09:50.868Z,3.10
2022-08-29T05:12:18.400Z,3.55
2022-08-29T05:14:44.889Z,4.20
2022-08-29T05:19:42.872Z,4.18
2022-08-29T05:22:14.491Z,4.78
2022-08-29T05:24:41.022Z,6.68
2022-08-29T05:29:40.316Z,4.53
2022-08-29T05:32:08.691Z,4.85
2022-08-29T05:34:36.768Z,6.07
2022-08-29T05:37:07.093Z,6.57
2022-08-29T05:39:35.300Z,4.72
2022-08-29T05:42:02.480Z,4.43
2022-08-29T05:44:34.880Z,4.50
2022-08-29T05:47:03.678Z,5.75
2022-08-29T05:49:30.196Z,3.72
2022-08-29T05:54:24.760Z,7.55
2022-08-29T05:56:56.980Z,6.07
2022-08-29T05:59:23.504Z,6.07
2022-08-29T06:04:18.812Z,5.13
2022-08-29T06:06:45.369Z,4.10
2022-08-29T06:09:13.325Z,3.78
2022-08-29T06:11:40.077Z,3.30
2022-08-29T06:14:06.566Z,5.57
2022-08-29T06:19:00.817Z,5.05
2022-08-29T06:21:27.540Z,4.75
2022-08-29T06:23:54.892Z,4.13
2022-08-29T06:26:21.565Z,3.50
2022-08-29T06:28:48.788Z,2.88
2022-08-29T06:31:20.966Z,4.22
2022-08-29T06:33:51.541Z,4.25
2022-08-29T06:36:18.261Z,3.90
2022-08-29T06:38:44.840Z,3.25
2022-08-29T06:41:15.436Z,3.65
2022-08-29T06:43:43.581Z,4.22
2022-08-29T06:46:21.863Z,2.65
2022-08-29T06:48:48.608Z,5.80
2022-08-29T06:51:15.116Z,4.03
2022-08-29T06:56:11.251Z,3.78
2022-08-29T06:58:38.674Z,2.90
2022-08-29T07:01:10.704Z,3.65
2022-08-29T07:03:37.257Z,3.20
2022-08-29T07:08:31.547Z,2.92
2022-08-29T07:10:58.166Z,4.10
2022-08-29T07:13:24.644Z,5.43
2022-08-29T07:18:18.375Z,3.13
2022-08-29T07:20:44.859Z,4.18
2022-08-29T07:25:38.678Z,4.57
2022-08-29T07:30:33.403Z,4.28
2022-08-29T07:33:00.220Z,4.13
2022-08-29T07:35:30.353Z,3.92
2022-08-29T07:38:03.810Z,3.80
2022-08-29T07:40:30.582Z,3.88
2022-08-29T07:42:57.224Z,3.85
2022-08-29T07:47:50.200Z,4.60
2022-08-29T07:50:17.206Z,4.53
2022-08-29T07:52:43.817Z,3.33
2022-08-29T07:55:10.574Z,4.57
2022-08-29T07:57:39.932Z,4.85
2022-08-29T08:00:12.372Z,3.20
2022-08-29T08:02:39.164Z,3.75
2022-08-29T08:05:07.213Z,4.28
2022-08-29T08:07:35.221Z,4.95
2022-08-29T08:10:02.373Z,3.58
2022-08-29T08:12:29.418Z,3.92
2022-08-29T08:14:57.105Z,3.83
2022-08-29T08:17:24.188Z,4.25
2022-08-29T08:19:50.753Z,3.25
2022-08-29T08:22:17.371Z,5.10
2022-08-29T08:24:45.025Z,3.20
2022-08-29T08:27:11.900Z,4.03
2022-08-29T08:29:38.472Z,3.85
2022-08-29T08:32:05.028Z,3.60
2022-08-29T08:34:35.415Z,4.13
2022-08-29T08:37:07.488Z,4.47
2022-08-29T08:39:34.674Z,5.03
2022-08-29T08:42:11.106Z,3.67
2022-08-29T08:44:58.119Z,5.53
2022-08-29T08:47:30.763Z,7.10
2022-08-29T08:50:18.416Z,6.18
2022-08-29T08:52:52.740Z,5.88
2022-08-29T08:55:42.856Z,5.05
2022-08-29T08:58:28.948Z,4.38
2022-08-29T09:01:18.501Z,3.80
2022-08-29T09:04:20.595Z,3.67
2022-08-29T09:06:53.382Z,4.75
2022-08-29T09:09:47.595Z,4.53
2022-08-29T09:12:49.825Z,3.63
2022-08-29T09:15:25.103Z,4.72
2022-08-29T09:18:14.196Z,5.20
2022-08-29T09:20:41.798Z,4.43
2022-08-29T09:23:28.358Z,4.57
2022-08-29T09:25:54.995Z,3.78
2022-08-29T09:28:21.785Z,4.15
2022-08-29T09:31:21.346Z,4.35
2022-08-29T09:33:58.197Z,4.10
2022-08-29T09:36:37.296Z,3.60
2022-08-29T09:39:33.144Z,3.80
2022-08-29T09:42:11.773Z,3.05
2022-08-29T09:44:40.392Z,4.15
2022-08-29T09:47:08.494Z,4.93
2022-08-29T09:49:37.446Z,4.30
2022-08-29T09:52:16.737Z,5.57
2022-08-29T09:54:44.774Z,6.18
2022-08-29T09:57:22.950Z,4.78
2022-08-29T10:00:14.561Z,3.67
2022-08-29T10:02:48.464Z,4.32
2022-08-29T10:05:40.680Z,6.38
2022-08-29T10:08:29.781Z,4.35
2022-08-29T10:11:02.925Z,4.47
2022-08-29T10:14:22.145Z,7.93
2022-08-29T10:16:56.415Z,5.25
2022-08-29T10:19:33.056Z,3.95
2022-08-29T10:22:42.250Z,3.38
2022-08-29T10:25:28.264Z,4.13
2022-08-29T10:28:03.260Z,5.75
2022-08-29T10:30:41.718Z,3.92
2022-08-29T10:33:20.245Z,5.72
2022-08-29T10:36:06.543Z,6.55
2022-08-29T10:38:32.977Z,6.47
2022-08-29T10:41:39.573Z,7.32
2022-08-29T10:49:56.740Z,5.00
2022-08-29T10:52:46.856Z,4.50
2022-08-29T10:55:40.980Z,5.18
2022-08-29T10:58:31.850Z,3.63
2022-08-29T11:01:15.664Z,4.13
2022-08-29T11:04:00.925Z,4.35
2022-08-29T11:09:28.600Z,4.75
2022-08-29T11:12:10.564Z,3.67
2022-08-29T11:14:52.312Z,3.75
2022-08-29T11:17:23.436Z,4.32
2022-08-29T11:20:11.711Z,4.03
2022-08-29T11:22:59.679Z,4.53
2022-08-29T11:25:27.545Z,3.85
2022-08-29T11:28:06.482Z,4.38
2022-08-29T11:31:03.721Z,4.57
2022-08-29T11:33:49.103Z,7.38
2022-08-29T11:36:26.291Z,3.83
2022-08-29T11:39:14.135Z,3.60
2022-08-29T11:41:47.867Z,4.88
2022-08-29T11:44:26.542Z,3.63
2022-08-29T11:46:56.628Z,4.15
2022-08-29T11:49:47.888Z,4.00
2022-08-29T11:52:22.297Z,5.05
2022-08-29T11:54:54.292Z,4.47
2022-08-29T11:57:20.743Z,3.10
2022-08-29T11:59:48.579Z,2.65
2022-08-29T12:02:30.387Z,3.10
2022-08-29T12:04:58.091Z,4.72
2022-08-29T12:07:51.971Z,7.13
2022-08-29T12:10:24.431Z,3.90
2022-08-29T12:13:00.665Z,2.78
2022-08-29T12:15:27.126Z,2.67
2022-08-29T12:18:02.480Z,3.25
2022-08-29T12:20:36.199Z,2.50
2022-08-29T12:23:11.662Z,2.22
2022-08-29T12:26:21.181Z,2.88
2022-08-29T12:28:47.144Z,2.55
2022-08-29T12:31:16.454Z,3.22
2022-08-29T12:33:49.171Z,3.17
2022-08-29T12:36:36.510Z,2.55
2022-08-29T12:41:58.312Z,2.05
2022-08-29T12:44:33.960Z,2.78
2022-08-29T12:47:42.869Z,3.67
2022-08-29T12:50:25.191Z,2.63
2022-08-29T12:52:58.837Z,2.85
2022-08-29T12:55:29.317Z,3.00
2022-08-29T12:57:57.138Z,2.80
2022-08-29T13:00:31.742Z,2.70
2022-08-29T13:03:19.996Z,2.72
2022-08-29T13:05:47.407Z,2.75
2022-08-29T13:08:26.585Z,3.20
2022-08-29T13:10:54.894Z,2.55
2022-08-29T13:13:24.305Z,2.90
2022-08-29T13:15:53.471Z,2.50
2022-08-29T13:18:21.501Z,2.83
2022-08-29T13:21:04.628Z,2.45
2022-08-29T13:23:37.402Z,2.60
2022-08-29T13:26:18.601Z,2.80
2022-08-29T13:29:01.121Z,2.67
2022-08-29T13:31:32.392Z,2.50
2022-08-29T13:33:58.870Z,2.60
2022-08-29T13:36:38.328Z,2.42
2022-08-29T13:39:25.173Z,2.90
2022-08-29T13:41:57.657Z,2.10
2022-08-29T13:44:36.991Z,2.83
2022-08-29T13:47:22.573Z,2.58
2022-08-29T13:49:50.281Z,3.50
2022-08-29T13:52:18.294Z,2.65
2022-08-29T13:54:45.050Z,2.03
2022-08-29T13:57:17.432Z,2.55
2022-08-29T13:59:44.658Z,3.25
2022-08-29T14:02:14.826Z,3.22
2022-08-29T14:04:43.011Z,3.20
2022-08-29T14:07:13.233Z,2.88
2022-08-29T14:09:42.346Z,2.33
2022-08-29T14:12:09.953Z,4.47
2022-08-29T14:14:36.483Z,4.63
2022-08-29T14:17:03.058Z,4.50
2022-08-29T14:19:30.471Z,4.10
2022-08-29T14:22:00.597Z,3.65
2022-08-29T14:24:30.765Z,3.10
2022-08-29T14:27:01.427Z,2.83
2022-08-29T14:29:33.799Z,4.45
2022-08-29T14:32:02.752Z,3.70
2022-08-29T14:34:32.591Z,2.85
2022-08-29T14:37:00.645Z,2.35
2022-08-29T14:39:27.375Z,4.05
2022-08-29T14:41:54.678Z,3.25
2022-08-29T14:44:22.253Z,3.45
2022-08-29T14:46:49.913Z,4.03
2022-08-29T14:49:16.448Z,2.63
2022-08-29T14:51:44.624Z,3.50
2022-08-29T14:54:11.834Z,4.45
2022-08-29T14:56:49.061Z,3.35
2022-08-29T14:59:16.627Z,2.75
2022-08-29T15:01:43.240Z,5.38
2022-08-29T15:04:11.095Z,4.15
2022-08-29T15:06:38.071Z,5.53
2022-08-29T15:09:04.950Z,2.50
2022-08-29T15:11:31.483Z,3.15
2022-08-29T15:14:02.242Z,3.20
2022-08-29T15:16:31.942Z,2.55
2022-08-29T15:19:44.750Z,3.08
2022-08-29T15:21:45.228Z,3.17
2022-08-29T15:24:11.818Z,3.35
2022-08-29T15:26:38.753Z,2.83
2022-08-29T15:29:05.563Z,3.20
2022-08-29T15:31:32.196Z,2.40
2022-08-29T15:33:58.727Z,2.60
2022-08-29T15:36:25.255Z,3.05
2022-08-29T15:38:51.875Z,2.63
2022-08-29T15:41:18.558Z,3.10
2022-08-29T15:43:45.054Z,2.88
2022-08-29T15:46:11.714Z,3.17
2022-08-29T15:48:38.284Z,2.95
2022-08-29T15:51:04.919Z,3.83
2022-08-29T15:53:31.735Z,3.53
2022-08-29T15:55:59.696Z,2.40
2022-08-29T15:58:26.263Z,2.85
2022-08-29T16:00:53.048Z,4.15
2022-08-29T16:03:19.573Z,3.45
2022-08-29T16:05:46.099Z,3.80
2022-08-29T16:08:16.418Z,3.40
2022-08-29T16:10:44.983Z,2.50
2022-08-29T16:13:11.876Z,2.50
2022-08-29T16:15:38.902Z,4.22
2022-08-29T16:18:06.784Z,5.07
2022-08-29T16:20:33.843Z,3.17
2022-08-29T16:23:01.116Z,4.22
2022-08-29T16:25:29.359Z,2.92
2022-08-29T16:27:56.810Z,2.72
2022-08-29T16:30:24.056Z,3.17
2022-08-29T16:32:51.064Z,2.83
2022-08-29T16:35:18.828Z,3.08
2022-08-29T16:37:46.157Z,3.97
2022-08-29T16:40:18.551Z,2.58
2022-08-29T16:42:55.506Z,3.55
2022-08-29T16:47:58.904Z,2.55
2022-08-29T16:50:26.724Z,2.97
2022-08-29T16:52:53.625Z,2.78
2022-08-29T16:55:20.856Z,2.95
2022-08-29T16:58:07.352Z,3.75
2022-08-29T17:00:34.357Z,3.22
2022-08-29T17:03:00.932Z,2.10
2022-08-29T17:05:27.701Z,3.42
2022-08-29T17:07:54.218Z,2.78
2022-08-29T17:10:20.749Z,3.65
2022-08-29T17:12:47.330Z,3.20
2022-08-29T17:15:13.989Z,3.53
2022-08-29T17:17:40.554Z,3.10
2022-08-29T17:20:08.071Z,2.65
2022-08-29T17:22:35.008Z,4.75
2022-08-29T17:25:01.989Z,1.90
2022-08-29T17:27:30.191Z,1.63
2022-08-29T17:29:57.057Z,1.98
2022-08-29T17:32:23.659Z,1.70
2022-08-29T17:34:50.441Z,1.70
2022-08-29T17:37:17.009Z,2.13
2022-08-29T17:39:43.614Z,1.63
2022-08-29T17:42:10.214Z,2.55
2022-08-29T17:44:36.819Z,1.90
2022-08-29T17:47:04.179Z,1.67
2022-08-29T17:49:30.825Z,2.33
2022-08-29T17:51:57.476Z,2.58
2022-08-29T17:54:25.034Z,2.15
2022-08-29T17:56:55.282Z,2.10
2022-08-29T17:59:23.090Z,2.53
2022-08-29T18:01:50.471Z,2.33
2022-08-29T18:04:18.122Z,2.85
2022-08-29T18:06:45.390Z,2.08
2022-08-29T18:09:12.984Z,2.70
2022-08-29T18:11:45.614Z,2.63
2022-08-29T18:14:12.326Z,1.60
2022-08-29T18:16:39.058Z,1.63
2022-08-29T18:19:06.430Z,2.10
2022-08-29T18:21:33.135Z,2.15
2022-08-29T18:24:00.109Z,2.40
2022-08-29T18:26:27.299Z,2.03
2022-08-29T18:28:55.199Z,2.47
2022-08-29T18:31:21.948Z,2.50
2022-08-29T18:34:04.122Z,2.10
2022-08-29T18:36:32.124Z,1.85
2022-08-29T18:38:59.616Z,1.90
2022-08-29T18:41:26.885Z,2.22
2022-08-29T18:43:53.723Z,2.03
2022-08-29T18:46:20.582Z,2.53
2022-08-29T18:48:47.796Z,1.73
2022-08-29T18:51:14.866Z,2.05
2022-08-29T18:53:42.185Z,2.00
2022-08-29T18:56:08.964Z,2.22
2022-08-29T18:58:36.096Z,2.30
2022-08-29T19:01:19.320Z,2.55
2022-08-29T19:03:55.670Z,2.63
2022-08-29T19:06:23.740Z,2.60
2022-08-29T19:08:50.392Z,1.90
2022-08-29T19:11:17.032Z,2.40
2022-08-29T19:13:43.835Z,1.90
2022-08-29T19:16:10.655Z,2.03
2022-08-29T19:18:38.426Z,2.20
2022-08-29T19:21:09.789Z,2.13
2022-08-29T19:23:41.777Z,2.25
2022-08-29T19:26:13.418Z,2.10
2022-08-29T19:28:41.256Z,2.22
2022-08-29T19:31:08.055Z,2.20
2022-08-29T19:33:36.156Z,2.90
2022-08-29T19:36:05.245Z,2.50
2022-08-29T19:38:32.070Z,2.58
2022-08-29T19:41:01.830Z,3.00
2022-08-29T19:43:31.069Z,2.55
2022-08-29T19:45:59.314Z,2.65
2022-08-29T19:48:26.845Z,2.70
2022-08-29T19:50:54.505Z,3.03
2022-08-29T19:53:26.058Z,2.78
2022-08-29T19:55:55.602Z,3.03
2022-08-29T19:58:23.630Z,2.50
2022-08-29T20:00:59.106Z,1.60
2022-08-29T20:03:28.358Z,1.83
2022-08-29T20:05:55.611Z,1.75
2022-08-29T20:08:22.949Z,2.25
2022-08-29T20:10:50.130Z,1.70
2022-08-29T20:13:17.308Z,1.80
2022-08-29T20:15:44.430Z,1.42
2022-08-29T20:18:14.298Z,1.42
2022-08-29T20:20:41.167Z,1.50
2022-08-29T20:23:08.468Z,2.17
2022-08-29T20:25:35.429Z,1.40
2022-08-29T20:28:03.715Z,1.30
2022-08-29T20:30:33.035Z,1.30
2022-08-29T20:32:59.811Z,1.50
2022-08-29T20:35:47.898Z,1.20
2022-08-29T20:38:14.709Z,1.75
2022-08-29T20:40:46.901Z,1.02
2022-08-29T20:43:14.856Z,0.90
2022-08-29T20:45:42.536Z,1.05
2022-08-29T20:48:10.810Z,2.15
2022-08-29T20:50:37.597Z,3.72
2022-08-29T20:53:09.131Z,3.03
2022-08-29T20:55:42.492Z,6.80
2022-08-29T20:58:09.354Z,2.90
2022-08-29T21:00:36.010Z,1.63
2022-08-29T21:03:21.238Z,5.57
2022-08-29T21:05:47.886Z,5.53
2022-08-29T21:08:20.388Z,2.90
2022-08-29T21:10:48.130Z,1.98
2022-08-29T21:13:15.392Z,1.10
2022-08-29T21:15:43.092Z,1.85
2022-08-29T21:18:11.859Z,2.67
2022-08-29T21:20:44.852Z,1.60
2022-08-29T21:23:22.222Z,1.80
2022-08-29T21:25:55.974Z,1.40
2022-08-29T21:28:24.861Z,1.70
2022-08-29T21:30:52.744Z,1.30
2022-08-29T21:33:20.643Z,0.82
2022-08-29T21:35:50.117Z,0.98
2022-08-29T21:38:17.542Z,1.23
2022-08-29T21:40:51.117Z,1.15
2022-08-29T21:43:19.425Z,0.93
2022-08-29T21:45:46.441Z,1.08
2022-08-29T21:48:13.227Z,1.40
2022-08-29T21:50:39.914Z,0.85
2022-08-29T21:53:06.446Z,1.52
2022-08-29T21:55:33.138Z,0.85
2022-08-29T21:58:01.020Z,0.73
2022-08-29T22:00:33.589Z,0.70
2022-08-29T22:03:02.838Z,2.30
2022-08-29T22:05:30.963Z,0.70
2022-08-29T22:07:57.753Z,0.88
2022-08-29T22:10:28.093Z,0.90
2022-08-29T22:12:55.197Z,0.85
2022-08-29T22:15:40.388Z,1.42
2022-08-29T22:18:07.103Z,0.80
2022-08-29T22:20:33.710Z,0.73
2022-08-29T22:23:00.262Z,1.08
2022-08-29T22:25:27.062Z,0.90
2022-08-29T22:27:53.735Z,0.80
2022-08-29T22:30:20.307Z,2.33
2022-08-29T22:47:02.260Z,4.82
2022-08-29T22:49:33.051Z,0.95
2022-08-29T22:52:00.171Z,1.17
2022-08-29T22:54:35.431Z,0.80
2022-08-29T22:57:04.475Z,0.90
2022-08-29T22:59:31.963Z,0.70
2022-08-29T23:01:58.523Z,0.80
2022-08-29T23:04:25.154Z,0.98
2022-08-29T23:06:51.687Z,0.70
2022-08-29T23:09:20.739Z,1.77
2022-08-29T23:11:47.731Z,0.77
2022-08-29T23:14:14.415Z,0.70
2022-08-29T23:16:41.907Z,1.13
2022-08-29T23:19:08.531Z,4.38
2022-08-29T23:21:35.687Z,0.80
2022-08-29T23:24:07.671Z,0.80
2022-08-29T23:26:35.283Z,0.70
2022-08-29T23:29:01.815Z,0.90
2022-08-29T23:31:28.422Z,0.80
2022-08-29T23:33:55.331Z,1.92
2022-08-29T23:36:21.939Z,0.80
2022-08-29T23:38:48.599Z,0.80
2022-08-29T23:41:19.847Z,0.80
2022-08-29T23:43:46.397Z,0.77
2022-08-29T23:46:13.956Z,0.77
2022-08-29T23:48:41.330Z,0.90
2022-08-29T23:51:10.386Z,0.80
2022-08-29T23:53:37.096Z,1.05
2022-08-29T23:56:10.390Z,0.93
2022-08-29T23:58:37.036Z,1.45
